Terminal Aerodrome Forecast
Issued by NWS Tuscon, AZ

Home | Current Version | Previous Version | Text Only | Print | Product List | Glossary On
Versions: 1 2 3 4 5 6 7 8 9 10 11 12 13 14 15 16 17 18
000
FTUS45 KTWC 052300
TAFDUG
TAF
KDUG 052332Z 0600/0624 10013G19KT P6SM SKC
     FM060700 04012KT P6SM SKC
     FM061600 10016G26KT P6SM FEW150=

USA.gov is the U.S. government's official web portal to all federal, state and local government web resources and services.